Time;durP1;ratioP1;P1;durP2;ratioP2;P2;SDS_P1;SDS_P2;PMS_P1;PMS_P2;Temp;Humidity;BMP_temperature;BMP_pressure;BME280_temperature;BME280_humidity;BME280_pressure;Samples;Min_cycle;Max_cycle;Signal;HPM_P1;HPM_P2
2021/05/09 00:00:37;;;;;;;6.53;3.47;;;11.00;90.30;;;;;;3595231;40;20053;-80
2021/05/09 00:03:04;;;;;;;5.85;3.30;;;11.00;90.70;;;;;;3596803;39;20060;-80
2021/05/09 00:05:31;;;;;;;5.40;3.13;;;10.90;90.30;;;;;;3597113;39;20047;-81
2021/05/09 00:07:58;;;;;;;5.18;3.55;;;10.90;90.80;;;;;;3595826;40;20058;-80
2021/05/09 00:10:24;;;;;;;9.70;2.78;;;10.90;90.30;;;;;;3595415;40;20125;-80
2021/05/09 00:12:51;;;;;;;5.75;3.28;;;10.90;90.50;;;;;;3596979;39;20345;-81
2021/05/09 00:15:23;;;;;;;4.03;3.28;;;10.90;90.50;;;;;;3604006;39;20090;-79
2021/05/09 00:17:49;;;;;;;6.38;4.88;;;11.00;90.80;;;;;;3597027;40;20451;-80
2021/05/09 00:20:16;;;;;;;6.03;3.65;;;10.90;90.30;;;;;;3596200;40;20035;-81
2021/05/09 00:22:42;;;;;;;6.72;3.80;;;10.90;90.60;;;;;;3591083;40;20270;-81
2021/05/09 00:25:09;;;;;;;7.88;3.33;;;10.90;90.00;;;;;;3589828;39;20074;-81
2021/05/09 00:27:42;;;;;;;4.60;3.40;;;10.90;89.30;;;;;;3587182;40;20086;-82
2021/05/09 00:30:09;;;;;;;6.55;3.88;;;10.80;90.10;;;;;;3569979;40;20040;-82
2021/05/09 00:32:35;;;;;;;8.02;4.10;;;10.80;89.90;;;;;;3596714;39;20040;-83
2021/05/09 00:35:02;;;;;;;6.03;3.20;;;10.80;90.70;;;;;;3596328;39;20032;-83
2021/05/09 00:37:31;;;;;;;6.82;4.25;;;10.80;90.60;;;;;;3595964;39;20317;-81
2021/05/09 00:39:57;;;;;;;6.43;4.10;;;10.80;90.60;;;;;;3595699;40;20371;-81
2021/05/09 00:42:22;;;;;;;7.80;4.00;;;10.80;91.10;;;;;;3595538;40;20101;-83
2021/05/09 00:44:50;;;;;;;7.13;4.25;;;10.80;90.50;;;;;;3590875;39;20050;-80
2021/05/09 00:47:17;;;;;;;5.40;3.78;;;10.70;90.30;;;;;;3586745;40;20086;-80
2021/05/09 00:49:43;;;;;;;6.05;3.78;;;10.70;90.50;;;;;;3586766;40;20048;-82
2021/05/09 00:52:10;;;;;;;8.20;3.22;;;10.70;90.60;;;;;;3586808;40;20051;-82
2021/05/09 00:54:53;;;;;;;9.88;3.88;;;10.70;90.20;;;;;;3594665;40;20044;-80
2021/05/09 00:57:21;;;;;;;5.88;3.45;;;10.70;90.20;;;;;;3589771;39;20126;-82
2021/05/09 00:59:50;;;;;;;5.38;3.75;;;10.70;90.40;;;;;;3591229;40;20044;-82
2021/05/09 01:02:16;;;;;;;5.70;3.85;;;10.70;90.80;;;;;;3596664;39;20039;-82
2021/05/09 01:04:45;;;;;;;8.68;3.92;;;10.70;90.40;;;;;;3596460;39;20040;-82
2021/05/09 01:07:15;;;;;;;8.70;4.70;;;10.70;90.10;;;;;;3596053;39;20036;-85
2021/05/09 01:09:52;;;;;;;5.93;3.33;;;10.80;90.80;;;;;;3603325;39;20035;-82
2021/05/09 01:12:18;;;;;;;9.00;4.75;;;10.80;91.20;;;;;;3595637;40;20125;-82
2021/05/09 01:14:44;;;;;;;6.93;4.10;;;10.70;90.90;;;;;;3603863;39;20077;-83
2021/05/09 01:17:11;;;;;;;5.38;3.85;;;10.70;90.30;;;;;;3595378;40;20141;-81
2021/05/09 01:19:39;;;;;;;6.90;3.67;;;10.70;90.50;;;;;;3596467;40;20042;-81
2021/05/09 01:22:10;;;;;;;6.93;3.58;;;10.70;90.40;;;;;;3595591;39;20032;-81
2021/05/09 01:24:36;;;;;;;7.93;4.07;;;10.60;90.50;;;;;;3596656;39;20048;-86
2021/05/09 01:27:06;;;;;;;6.70;3.78;;;10.60;91.30;;;;;;3591849;39;20051;-82
2021/05/09 01:29:35;;;;;;;8.48;3.00;;;10.60;91.20;;;;;;3593239;40;20066;-82
2021/05/09 01:32:03;;;;;;;4.80;3.55;;;10.60;90.60;;;;;;3576908;40;20149;-83
2021/05/09 01:34:35;;;;;;;6.05;3.88;;;10.50;90.80;;;;;;3592108;40;20040;-83
2021/05/09 01:37:05;;;;;;;8.60;4.38;;;10.50;91.20;;;;;;3596264;40;20047;-82
2021/05/09 01:39:37;;;;;;;6.28;3.22;;;10.50;90.70;;;;;;3595265;40;20129;-80
2021/05/09 01:42:03;;;;;;;9.55;4.97;;;10.50;90.70;;;;;;3595294;40;20040;-83
2021/05/09 01:44:54;;;;;;;6.88;4.40;;;10.50;90.40;;;;;;3591471;39;20034;-83
2021/05/09 01:47:21;;;;;;;5.07;3.63;;;10.40;90.40;;;;;;3595409;40;20064;-82
2021/05/09 01:49:50;;;;;;;5.75;4.03;;;10.40;90.60;;;;;;3596311;39;20047;-81
2021/05/09 01:52:18;;;;;;;8.68;4.18;;;10.40;91.20;;;;;;3596250;39;20334;-82
2021/05/09 01:54:45;;;;;;;5.50;3.70;;;10.40;90.90;;;;;;3596063;39;20047;-83
2021/05/09 01:57:11;;;;;;;5.93;3.38;;;10.40;90.50;;;;;;3593952;40;20125;-81
2021/05/09 01:59:37;;;;;;;9.15;3.70;;;10.30;90.50;;;;;;3596122;39;20047;-81
2021/05/09 02:02:03;;;;;;;10.05;5.13;;;10.30;90.80;;;;;;3596386;39;20665;-80
2021/05/09 02:04:37;;;;;;;5.82;3.25;;;10.30;91.70;;;;;;3594932;40;20052;-82
2021/05/09 02:07:24;;;;;;;9.35;4.25;;;10.30;91.20;;;;;;3595153;40;20025;-82
2021/05/09 02:09:50;;;;;;;6.00;3.08;;;10.30;91.50;;;;;;3596158;39;20247;-81
2021/05/09 02:12:15;;;;;;;7.63;3.20;;;10.40;91.70;;;;;;3588110;39;20052;-80
2021/05/09 02:14:41;;;;;;;7.80;3.28;;;10.30;91.40;;;;;;3593168;40;20056;-82
2021/05/09 02:17:07;;;;;;;4.88;2.88;;;10.30;90.80;;;;;;3595973;39;20331;-81
2021/05/09 02:19:34;;;;;;;6.78;4.07;;;10.30;91.20;;;;;;3595708;39;20052;-83
2021/05/09 02:22:06;;;;;;;7.72;2.83;;;10.30;91.30;;;;;;3598877;39;20267;-79
2021/05/09 02:24:32;;;;;;;11.57;4.47;;;10.30;90.60;;;;;;3586394;40;20051;-79
2021/05/09 02:26:58;;;;;;;7.85;3.97;;;10.40;90.60;;;;;;3591910;40;20036;-83
2021/05/09 02:29:24;;;;;;;4.75;3.20;;;10.30;90.90;;;;;;3595935;39;20112;-81
2021/05/09 02:31:50;;;;;;;6.85;3.67;;;10.30;91.50;;;;;;3597106;40;20507;-79
2021/05/09 02:34:16;;;;;;;4.85;3.80;;;10.30;91.00;;;;;;3594625;40;20043;-82
2021/05/09 02:36:44;;;;;;;5.93;3.63;;;10.30;91.10;;;;;;3586426;40;20072;-80
2021/05/09 02:39:10;;;;;;;8.15;3.38;;;10.20;90.60;;;;;;3596972;39;20328;-80
2021/05/09 02:41:36;;;;;;;7.50;3.55;;;10.20;90.50;;;;;;3596450;40;20076;-81
2021/05/09 02:44:03;;;;;;;5.03;3.33;;;10.10;90.90;;;;;;3590373;39;20189;-81
2021/05/09 02:46:28;;;;;;;7.13;3.33;;;10.20;90.80;;;;;;3596392;40;20051;-81
2021/05/09 02:48:55;;;;;;;7.80;3.92;;;10.10;90.40;;;;;;3589112;39;20092;-80
2021/05/09 02:51:20;;;;;;;5.97;3.05;;;10.10;90.50;;;;;;3589786;40;20046;-80
2021/05/09 02:53:46;;;;;;;4.97;2.80;;;10.10;90.90;;;;;;3596285;39;20040;-81
2021/05/09 02:56:12;;;;;;;7.75;4.55;;;10.10;90.70;;;;;;3596783;39;20040;-79
2021/05/09 02:58:38;;;;;;;6.82;3.92;;;10.10;90.50;;;;;;3604398;39;20043;-79
2021/05/09 03:01:04;;;;;;;6.38;2.55;;;10.10;90.70;;;;;;3593384;39;20263;-80
2021/05/09 03:03:30;;;;;;;7.43;3.80;;;10.20;90.30;;;;;;3595464;40;20132;-80
2021/05/09 03:05:56;;;;;;;8.13;3.92;;;10.10;90.60;;;;;;3595607;40;20050;-80
2021/05/09 03:08:22;;;;;;;5.22;3.65;;;10.20;90.90;;;;;;3596917;39;20050;-81
2021/05/09 03:10:50;;;;;;;6.20;3.45;;;10.20;90.80;;;;;;3603026;39;20036;-81
2021/05/09 03:13:16;;;;;;;9.27;4.40;;;10.30;90.80;;;;;;3597404;39;20067;-79
2021/05/09 03:15:42;;;;;;;9.20;3.65;;;10.30;91.10;;;;;;3597256;39;20050;-81
2021/05/09 03:18:08;;;;;;;8.30;3.20;;;10.30;91.20;;;;;;3596000;40;20455;-82
2021/05/09 03:20:34;;;;;;;5.65;3.55;;;10.30;90.50;;;;;;3597365;39;20056;-79
2021/05/09 03:23:00;;;;;;;7.65;2.95;;;10.30;90.70;;;;;;3594914;39;20082;-81
2021/05/09 03:25:26;;;;;;;6.65;4.00;;;10.30;91.60;;;;;;3597006;40;20701;-82
2021/05/09 03:27:52;;;;;;;8.82;3.33;;;10.30;90.90;;;;;;3591643;40;20055;-81
2021/05/09 03:30:18;;;;;;;4.28;2.42;;;10.20;90.50;;;;;;3595191;39;20047;-80
2021/05/09 03:32:44;;;;;;;9.85;3.80;;;10.20;91.30;;;;;;3595705;39;20070;-79
2021/05/09 03:35:11;;;;;;;7.88;3.38;;;10.20;91.00;;;;;;3596881;39;20069;-82
2021/05/09 03:37:37;;;;;;;8.27;3.28;;;10.20;91.30;;;;;;3604782;39;20076;-79
2021/05/09 03:40:05;;;;;;;5.57;2.72;;;10.10;90.90;;;;;;3596934;40;20043;-82
2021/05/09 03:42:32;;;;;;;5.80;3.40;;;10.10;91.30;;;;;;3595774;40;20040;-79
2021/05/09 03:44:58;;;;;;;7.07;3.33;;;10.10;91.00;;;;;;3596406;39;20052;-82
2021/05/09 03:47:26;;;;;;;7.00;2.85;;;10.10;90.40;;;;;;3597086;39;20036;-83
2021/05/09 03:49:56;;;;;;;7.95;3.75;;;10.10;91.50;;;;;;3595990;40;20137;-79
2021/05/09 03:52:22;;;;;;;6.13;3.00;;;10.20;91.60;;;;;;3597020;39;20133;-82
2021/05/09 03:54:56;;;;;;;9.07;2.63;;;10.10;91.20;;;;;;3596273;39;20059;-80
2021/05/09 03:57:23;;;;;;;10.25;3.35;;;10.10;91.30;;;;;;3604700;39;20338;-83
2021/05/09 03:59:49;;;;;;;8.57;3.83;;;10.10;91.80;;;;;;3596891;39;20044;-80
2021/05/09 04:02:15;;;;;;;7.45;3.83;;;10.20;92.40;;;;;;3594330;39;20044;-81
2021/05/09 04:04:41;;;;;;;6.25;2.90;;;10.20;91.50;;;;;;3597118;39;20051;-83
2021/05/09 04:07:07;;;;;;;4.03;3.28;;;10.20;91.20;;;;;;3596898;39;20048;-82
2021/05/09 04:09:33;;;;;;;6.15;2.78;;;10.20;91.00;;;;;;3597238;39;20255;-80
2021/05/09 04:12:00;;;;;;;6.72;3.08;;;10.30;90.90;;;;;;3596103;39;20113;-81
2021/05/09 04:14:26;;;;;;;5.97;3.55;;;10.30;91.30;;;;;;3597017;39;20319;-80
2021/05/09 04:16:52;;;;;;;6.18;3.35;;;10.30;91.00;;;;;;3595985;40;20044;-82
2021/05/09 04:19:17;;;;;;;3.95;2.75;;;10.30;91.20;;;;;;3587273;40;20128;-83
2021/05/09 04:21:43;;;;;;;6.38;2.95;;;10.40;91.20;;;;;;3594616;39;20032;-79
2021/05/09 04:24:09;;;;;;;7.97;2.67;;;10.40;90.90;;;;;;3586657;40;20099;-81
2021/05/09 04:26:35;;;;;;;3.08;2.17;;;10.40;91.10;;;;;;3591881;40;20137;-81
2021/05/09 04:29:02;;;;;;;6.40;3.20;;;10.50;90.90;;;;;;3595991;39;20051;-81
2021/05/09 04:31:28;;;;;;;5.30;2.20;;;10.50;91.70;;;;;;3602895;39;20036;-81
2021/05/09 04:33:54;;;;;;;3.70;2.03;;;10.50;91.30;;;;;;3604404;39;20427;-82
2021/05/09 04:36:20;;;;;;;6.30;2.55;;;10.50;91.20;;;;;;3596993;39;20042;-81
2021/05/09 04:38:46;;;;;;;4.95;2.78;;;10.50;91.00;;;;;;3604500;39;20284;-79
2021/05/09 04:41:11;;;;;;;4.40;2.83;;;10.50;91.60;;;;;;3596213;39;20129;-81
2021/05/09 04:43:38;;;;;;;6.32;2.25;;;10.60;92.10;;;;;;3602121;39;20051;-82
2021/05/09 04:46:05;;;;;;;4.18;2.33;;;10.60;91.10;;;;;;3595829;40;20104;-83
2021/05/09 04:48:30;;;;;;;6.72;2.10;;;10.70;91.30;;;;;;3604100;39;20109;-80
2021/05/09 04:50:56;;;;;;;8.82;2.53;;;10.70;91.30;;;;;;3596542;39;20047;-82
2021/05/09 04:53:23;;;;;;;5.00;2.45;;;10.80;91.20;;;;;;3596694;39;20114;-81
2021/05/09 04:55:49;;;;;;;6.57;2.40;;;10.90;91.20;;;;;;3603255;39;20048;-81
2021/05/09 04:58:15;;;;;;;4.80;2.45;;;11.00;91.20;;;;;;3596489;39;20337;-79
2021/05/09 05:00:41;;;;;;;4.85;1.67;;;11.10;91.30;;;;;;3595672;40;20103;-79
2021/05/09 05:03:07;;;;;;;3.50;2.00;;;11.20;91.60;;;;;;3596660;39;20036;-82
2021/05/09 05:05:33;;;;;;;5.35;2.67;;;11.50;91.50;;;;;;3596428;39;20043;-79
2021/05/09 05:07:58;;;;;;;7.50;2.20;;;12.00;91.50;;;;;;3596154;39;20448;-79
2021/05/09 05:10:25;;;;;;;4.10;2.25;;;12.40;91.30;;;;;;3603861;39;20059;-79
2021/05/09 05:12:51;;;;;;;3.85;1.90;;;12.70;91.20;;;;;;3594366;40;20054;-78
2021/05/09 05:15:17;;;;;;;5.35;1.67;;;13.10;91.10;;;;;;3595920;39;20046;-79
2021/05/09 05:17:42;;;;;;;5.10;1.58;;;13.40;90.70;;;;;;3595613;39;20044;-79
2021/05/09 05:20:09;;;;;;;5.80;2.33;;;13.50;91.10;;;;;;3594800;40;20269;-79
2021/05/09 05:22:35;;;;;;;2.70;1.50;;;13.50;90.70;;;;;;3598577;39;20331;-79
2021/05/09 05:25:01;;;;;;;6.97;2.40;;;13.50;91.10;;;;;;3585144;40;20052;-79
2021/05/09 05:27:27;;;;;;;4.47;2.53;;;13.50;91.40;;;;;;3594432;40;20125;-81
2021/05/09 05:29:53;;;;;;;4.15;2.38;;;13.40;91.30;;;;;;3595025;39;20560;-79
2021/05/09 05:32:20;;;;;;;3.28;2.25;;;13.30;91.60;;;;;;3603905;39;20125;-79
2021/05/09 05:34:45;;;;;;;3.15;1.90;;;13.30;91.90;;;;;;3595588;40;20048;-80
2021/05/09 05:37:11;;;;;;;4.47;2.30;;;13.20;91.80;;;;;;3592225;40;20035;-78
2021/05/09 05:39:37;;;;;;;5.72;3.10;;;13.20;92.30;;;;;;3596050;39;20406;-78
2021/05/09 05:42:03;;;;;;;4.22;3.15;;;13.30;92.40;;;;;;3595863;39;20659;-79
2021/05/09 05:44:29;;;;;;;6.65;2.17;;;13.30;92.90;;;;;;3599014;39;20040;-78
2021/05/09 05:46:55;;;;;;;5.43;2.38;;;13.40;93.40;;;;;;3584988;40;20776;-78
2021/05/09 05:49:21;;;;;;;5.10;2.40;;;13.50;93.30;;;;;;3585556;40;20224;-78
2021/05/09 05:51:47;;;;;;;5.95;2.22;;;13.70;93.30;;;;;;3585872;40;20036;-79
2021/05/09 05:54:13;;;;;;;5.22;3.08;;;14.10;93.10;;;;;;3588838;40;20051;-79
2021/05/09 05:56:38;;;;;;;7.25;2.47;;;14.50;92.00;;;;;;3597084;39;20048;-79
2021/05/09 05:59:04;;;;;;;5.45;2.00;;;15.00;92.70;;;;;;3588994;40;20048;-79
2021/05/09 06:01:30;;;;;;;3.58;2.15;;;15.60;92.60;;;;;;3588015;40;20441;-79
2021/05/09 06:03:56;;;;;;;4.80;2.45;;;16.10;91.90;;;;;;3585992;40;20045;-78
2021/05/09 06:06:21;;;;;;;6.93;2.22;;;16.50;90.70;;;;;;3586060;40;20047;-79
2021/05/09 06:08:51;;;;;;;3.53;2.60;;;16.80;90.90;;;;;;3578572;40;20032;-78
2021/05/09 06:11:17;;;;;;;6.15;2.53;;;17.00;90.80;;;;;;3587982;39;20033;-78
2021/05/09 06:13:43;;;;;;;4.07;2.40;;;16.90;90.80;;;;;;3586113;40;20254;-79
2021/05/09 06:16:08;;;;;;;5.60;2.53;;;16.90;90.00;;;;;;3583336;39;20046;-78
2021/05/09 06:18:36;;;;;;;4.35;2.58;;;17.00;91.20;;;;;;3585230;40;20043;-80
2021/05/09 06:21:02;;;;;;;5.55;2.90;;;16.90;90.80;;;;;;3580846;40;20130;-81
2021/05/09 06:23:28;;;;;;;5.43;3.00;;;17.10;90.80;;;;;;3582569;40;20045;-81
2021/05/09 06:25:57;;;;;;;6.97;2.75;;;17.30;90.50;;;;;;3580049;39;20052;-82
2021/05/09 06:28:23;;;;;;;2.13;1.75;;;17.30;90.10;;;;;;3578795;40;20044;-79
2021/05/09 06:30:49;;;;;;;5.15;2.55;;;17.30;90.70;;;;;;3582986;40;20033;-81
2021/05/09 06:33:15;;;;;;;4.72;2.50;;;17.60;90.00;;;;;;3582807;40;20068;-81
2021/05/09 06:35:42;;;;;;;4.78;2.05;;;17.90;90.80;;;;;;3581958;40;20068;-81
2021/05/09 06:38:09;;;;;;;2.95;1.85;;;18.30;90.00;;;;;;3581624;40;20040;-81
2021/05/09 06:40:37;;;;;;;3.35;2.10;;;18.60;89.30;;;;;;3580504;40;20051;-81
2021/05/09 06:43:03;;;;;;;4.95;2.65;;;18.60;89.20;;;;;;3573292;40;20032;-79
2021/05/09 06:45:32;;;;;;;4.68;2.10;;;18.30;89.50;;;;;;3584717;40;20064;-82
2021/05/09 06:48:01;;;;;;;3.97;2.13;;;17.80;89.50;;;;;;3580302;40;20052;-82
2021/05/09 06:50:28;;;;;;;5.05;2.72;;;17.80;90.10;;;;;;3574692;40;20041;-81
2021/05/09 06:52:54;;;;;;;3.72;2.47;;;18.10;90.20;;;;;;3582134;40;20045;-81
2021/05/09 06:55:20;;;;;;;3.30;2.70;;;18.40;89.20;;;;;;3583470;39;20136;-80
2021/05/09 06:57:47;;;;;;;5.85;2.25;;;18.80;89.10;;;;;;3582088;40;20875;-80
2021/05/09 07:00:14;;;;;;;5.30;2.70;;;19.10;89.50;;;;;;3572435;40;20328;-80
2021/05/09 07:02:41;;;;;;;6.63;2.08;;;19.00;86.40;;;;;;3580870;40;20044;-79
2021/05/09 07:05:07;;;;;;;3.03;2.53;;;19.00;87.30;;;;;;3580119;40;20041;-81
2021/05/09 07:07:48;;;;;;;3.50;1.73;;;19.20;88.20;;;;;;3582090;40;20690;-79
2021/05/09 07:10:14;;;;;;;5.25;1.90;;;19.60;81.10;;;;;;3583277;40;20037;-81
2021/05/09 07:12:40;;;;;;;3.97;2.22;;;19.70;87.00;;;;;;3573305;40;20056;-81
2021/05/09 07:15:07;;;;;;;4.03;2.92;;;19.80;88.10;;;;;;3579171;40;20132;-79
2021/05/09 07:17:33;;;;;;;3.78;2.30;;;20.10;87.90;;;;;;3581780;40;20077;-81
2021/05/09 07:19:58;;;;;;;2.80;1.77;;;20.10;84.10;;;;;;3580343;40;20036;-80
2021/05/09 07:22:32;;;;;;;6.15;1.63;;;20.10;86.80;;;;;;3589376;40;20510;-80
2021/05/09 07:24:58;;;;;;;3.92;1.90;;;20.00;84.60;;;;;;3586954;40;20047;-81
2021/05/09 07:27:23;;;;;;;2.97;1.60;;;20.00;86.10;;;;;;3588467;40;20044;-80
2021/05/09 07:29:49;;;;;;;2.80;2.20;;;19.90;86.30;;;;;;3591080;40;20133;-83
2021/05/09 07:32:15;;;;;;;5.35;2.72;;;19.90;78.80;;;;;;3589533;40;20040;-81
2021/05/09 07:34:41;;;;;;;3.67;2.50;;;19.80;83.40;;;;;;3587142;40;20071;-80
2021/05/09 07:37:07;;;;;;;4.15;2.15;;;19.90;84.20;;;;;;3588105;40;20205;-81
2021/05/09 07:39:32;;;;;;;4.10;1.70;;;20.00;81.00;;;;;;3586839;40;20040;-80
2021/05/09 07:41:58;;;;;;;3.92;1.80;;;20.00;84.30;;;;;;3586533;40;20047;-79
2021/05/09 07:44:24;;;;;;;3.42;2.38;;;19.90;81.40;;;;;;3587975;40;20036;-80
2021/05/09 07:46:52;;;;;;;3.40;1.77;;;19.80;82.70;;;;;;3579309;40;20054;-79
2021/05/09 07:49:17;;;;;;;5.68;2.17;;;19.70;83.80;;;;;;3585276;39;20052;-81
2021/05/09 07:51:43;;;;;;;3.30;2.28;;;19.70;82.00;;;;;;3588327;40;20043;-81
2021/05/09 07:54:09;;;;;;;5.20;4.70;;;19.80;84.30;;;;;;3587156;40;20643;-80
2021/05/09 07:56:37;;;;;;;5.25;2.78;;;19.90;80.90;;;;;;3586784;40;20331;-81
2021/05/09 07:59:03;;;;;;;4.18;1.58;;;19.80;84.10;;;;;;3579598;40;20264;-82
2021/05/09 08:01:29;;;;;;;4.20;2.20;;;20.00;82.90;;;;;;3586716;40;20047;-80
2021/05/09 08:03:55;;;;;;;3.97;2.03;;;20.30;82.90;;;;;;3586382;40;20039;-79
2021/05/09 08:06:22;;;;;;;3.05;1.67;;;20.70;83.10;;;;;;3587922;40;20066;-79
2021/05/09 08:08:47;;;;;;;4.22;2.22;;;21.10;82.10;;;;;;3588241;40;20319;-81
2021/05/09 08:11:13;;;;;;;3.88;1.45;;;21.50;81.40;;;;;;3574472;40;20051;-80
2021/05/09 08:13:40;;;;;;;2.55;1.90;;;21.80;80.00;;;;;;3587725;40;20040;-79
2021/05/09 08:16:06;;;;;;;2.70;2.03;;;22.10;78.50;;;;;;3588169;40;20036;-80
2021/05/09 08:18:35;;;;;;;3.35;1.70;;;22.10;78.50;;;;;;3585607;39;20641;-79
2021/05/09 08:21:02;;;;;;;4.28;1.60;;;22.20;78.40;;;;;;3588015;40;20118;-81
2021/05/09 08:23:30;;;;;;;4.35;1.58;;;22.20;78.90;;;;;;3580275;40;20049;-79
2021/05/09 08:25:56;;;;;;;5.38;1.70;;;22.20;78.80;;;;;;3587685;40;20450;-82
2021/05/09 08:28:21;;;;;;;5.45;2.05;;;22.00;77.00;;;;;;3588863;40;20052;-83
2021/05/09 08:30:47;;;;;;;4.68;1.58;;;22.00;75.90;;;;;;3599219;23;20425;-81
2021/05/09 08:33:13;;;;;;;1.52;1.13;;;22.10;77.60;;;;;;3585645;40;20290;-82
2021/05/09 08:35:39;;;;;;;2.75;1.40;;;22.10;76.00;;;;;;3575690;40;20044;-82
2021/05/09 08:38:05;;;;;;;2.60;1.38;;;22.20;76.90;;;;;;3583155;40;20077;-81
2021/05/09 08:40:32;;;;;;;1.17;0.80;;;22.30;76.70;;;;;;3577025;40;20145;-80
2021/05/09 08:42:58;;;;;;;1.33;1.00;;;22.40;75.80;;;;;;3576636;40;20112;-82
2021/05/09 08:45:25;;;;;;;2.30;1.60;;;22.30;75.70;;;;;;3578031;40;20279;-80
2021/05/09 08:47:53;;;;;;;6.47;2.80;;;22.30;75.20;;;;;;3577922;40;20260;-81
2021/05/09 08:50:20;;;;;;;6.15;3.03;;;22.30;74.80;;;;;;3584972;40;20340;-80
2021/05/09 08:52:49;;;;;;;2.15;1.45;;;22.40;74.60;;;;;;3568410;40;20040;-80
2021/05/09 08:55:23;;;;;;;4.13;1.90;;;22.50;73.80;;;;;;3571203;40;20130;-80
2021/05/09 08:57:49;;;;;;;6.10;5.60;;;22.60;74.40;;;;;;3582875;40;20356;-80
2021/05/09 09:00:16;;;;;;;2.30;1.55;;;22.60;75.30;;;;;;3576049;40;20036;-80
2021/05/09 09:02:43;;;;;;;2.47;1.98;;;22.60;75.50;;;;;;3580119;40;20406;-82
2021/05/09 09:05:11;;;;;;;2.42;1.83;;;22.70;76.70;;;;;;3578072;40;20044;-81
2021/05/09 09:07:49;;;;;;;2.50;1.42;;;22.70;76.60;;;;;;3576445;40;20048;-81
2021/05/09 09:10:37;;;;;;;2.65;1.00;;;22.80;70.00;;;;;;3578385;40;20352;-81
2021/05/09 09:13:17;;;;;;;1.15;0.75;;;22.70;72.10;;;;;;3583151;40;20068;-84
2021/05/09 09:16:03;;;;;;;2.60;0.90;;;22.80;76.50;;;;;;3582500;40;20041;-84
2021/05/09 09:18:30;;;;;;;1.83;0.70;;;22.80;70.00;;;;;;3581030;40;20133;-82
2021/05/09 09:20:57;;;;;;;3.20;1.05;;;23.00;76.20;;;;;;3575324;40;20049;-83
2021/05/09 09:23:23;;;;;;;0.82;0.63;;;23.00;75.60;;;;;;3576117;40;20096;-84
2021/05/09 09:25:49;;;;;;;2.50;0.85;;;23.00;75.50;;;;;;3564132;40;20052;-82
2021/05/09 09:28:18;;;;;;;1.00;0.60;;;22.90;75.70;;;;;;3570585;40;20339;-82
2021/05/09 09:30:55;;;;;;;3.03;0.73;;;22.90;75.60;;;;;;3579160;40;20337;-81
2021/05/09 09:33:21;;;;;;;1.60;0.50;;;22.90;74.00;;;;;;3582323;40;20040;-82
2021/05/09 09:35:50;;;;;;;1.73;0.70;;;22.90;76.90;;;;;;3580810;40;20080;-83
2021/05/09 09:38:33;;;;;;;1.60;0.95;;;22.80;77.50;;;;;;3582748;40;20088;-81
2021/05/09 09:41:13;;;;;;;0.90;0.30;;;22.60;69.20;;;;;;3582549;40;20051;-83
2021/05/09 09:43:40;;;;;;;1.33;0.30;;;22.30;76.20;;;;;;3582166;40;20516;-85
2021/05/09 09:46:24;;;;;;;0.85;0.30;;;22.00;75.30;;;;;;3578275;40;20444;-81
2021/05/09 09:48:51;;;;;;;0.95;0.38;;;21.70;70.00;;;;;;3583829;40;20516;-81
2021/05/09 09:51:16;;;;;;;5.57;2.55;;;21.40;73.90;;;;;;3585302;40;20348;-82
2021/05/09 09:53:43;;;;;;;4.40;2.15;;;21.10;73.40;;;;;;3585269;40;20040;-81
2021/05/09 09:56:11;;;;;;;4.07;2.75;;;20.80;75.80;;;;;;3579542;40;20052;-81
2021/05/09 09:58:44;;;;;;;7.45;2.45;;;20.60;76.40;;;;;;3582435;40;20390;-83
2021/05/09 10:01:11;;;;;;;9.98;7.00;;;20.30;76.80;;;;;;3579467;40;20419;-81
2021/05/09 10:03:37;;;;;;;3.58;2.63;;;20.10;75.40;;;;;;3584074;40;20092;-81
2021/05/09 10:06:04;;;;;;;2.03;0.93;;;19.80;76.70;;;;;;3581633;40;20262;-83
2021/05/09 10:08:31;;;;;;;1.10;1.00;;;19.60;77.70;;;;;;3584846;40;20360;-81
2021/05/09 10:11:00;;;;;;;1.38;0.65;;;19.30;76.70;;;;;;3583903;40;20041;-81
2021/05/09 10:13:26;;;;;;;0.80;0.40;;;19.00;77.70;;;;;;3585424;40;20041;-80
2021/05/09 10:15:53;;;;;;;1.58;0.63;;;18.80;77.70;;;;;;3585430;40;20044;-78
2021/05/09 10:18:20;;;;;;;1.88;0.60;;;18.50;78.40;;;;;;3581896;40;20048;-78
2021/05/09 10:20:47;;;;;;;1.88;0.60;;;18.30;78.90;;;;;;3579562;40;20243;-80
2021/05/09 10:23:14;;;;;;;1.10;0.52;;;18.00;79.00;;;;;;3581100;40;20534;-80
2021/05/09 10:25:54;;;;;;;0.90;0.30;;;17.90;79.30;;;;;;3583330;40;20323;-79
2021/05/09 10:28:23;;;;;;;1.38;0.30;;;17.80;79.60;;;;;;3580713;40;20638;-79
2021/05/09 10:30:54;;;;;;;1.08;0.38;;;17.70;79.60;;;;;;3580273;40;20117;-77
2021/05/09 10:33:38;;;;;;;2.63;1.02;;;17.60;79.40;;;;;;3582090;40;20397;-79
2021/05/09 10:36:20;;;;;;;2.28;0.52;;;17.50;79.90;;;;;;3582922;40;20040;-75
2021/05/09 10:39:05;;;;;;;2.03;0.45;;;17.50;81.10;;;;;;3581882;40;20091;-74
2021/05/09 10:41:31;;;;;;;1.20;0.50;;;17.40;80.60;;;;;;3584078;40;20547;-75
2021/05/09 10:43:57;;;;;;;1.17;0.40;;;17.40;80.50;;;;;;3582725;40;20036;-76
2021/05/09 10:46:23;;;;;;;2.28;0.50;;;17.30;81.20;;;;;;3573443;40;20068;-76
2021/05/09 10:49:11;;;;;;;1.30;0.63;;;17.20;81.90;;;;;;3573662;40;20048;-79
2021/05/09 10:51:37;;;;;;;4.43;1.20;;;17.20;83.30;;;;;;3582635;40;20043;-78
2021/05/09 10:54:24;;;;;;;2.90;0.82;;;17.10;81.60;;;;;;3581038;40;20087;-78
2021/05/09 10:56:52;;;;;;;4.00;1.83;;;17.20;82.30;;;;;;3581262;40;20063;-78
2021/05/09 10:59:17;;;;;;;6.00;2.92;;;17.30;81.70;;;;;;3603206;22;20275;-78
2021/05/09 11:01:44;;;;;;;10.23;4.80;;;17.50;82.50;;;;;;3570969;40;20028;-81
2021/05/09 11:04:14;;;;;;;4.90;3.20;;;17.70;82.30;;;;;;3580010;40;20036;-78
2021/05/09 11:06:50;;;;;;;1.80;0.55;;;18.00;82.80;;;;;;3587770;40;20043;-80
2021/05/09 11:09:22;;;;;;;1.30;0.88;;;18.20;80.00;;;;;;3578508;40;20047;-81
2021/05/09 11:11:48;;;;;;;1.58;0.57;;;18.50;81.30;;;;;;3586935;40;20333;-80
2021/05/09 11:14:18;;;;;;;2.65;0.52;;;18.70;81.40;;;;;;3587654;40;20044;-80
2021/05/09 11:16:56;;;;;;;0.65;0.38;;;18.90;80.80;;;;;;3591400;40;20049;-80
2021/05/09 11:19:24;;;;;;;1.52;0.63;;;19.00;80.40;;;;;;3581591;40;20256;-82
2021/05/09 11:21:52;;;;;;;1.00;0.50;;;19.20;80.90;;;;;;3580386;40;20279;-80
2021/05/09 11:24:20;;;;;;;0.80;0.30;;;19.40;80.00;;;;;;3589119;40;20048;-81
2021/05/09 11:26:51;;;;;;;1.05;0.35;;;19.60;78.80;;;;;;3578184;40;20044;-80
2021/05/09 11:29:19;;;;;;;0.50;0.30;;;19.80;78.90;;;;;;3587507;40;20041;-79
2021/05/09 11:31:46;;;;;;;0.35;0.20;;;19.90;78.30;;;;;;3587303;40;20421;-78
2021/05/09 11:34:13;;;;;;;0.50;0.30;;;20.10;78.60;;;;;;3586929;40;20527;-81
2021/05/09 11:36:41;;;;;;;0.70;0.30;;;20.20;77.70;;;;;;3586969;40;20036;-80
2021/05/09 11:39:12;;;;;;;1.85;0.60;;;20.30;77.70;;;;;;3586678;40;20133;-80
2021/05/09 11:41:51;;;;;;;1.13;0.30;;;20.30;76.50;;;;;;3586722;40;20317;-81
2021/05/09 11:44:17;;;;;;;1.05;0.57;;;20.30;73.60;;;;;;3577691;40;20138;-80
2021/05/09 11:46:43;;;;;;;1.63;0.30;;;20.30;76.00;;;;;;3572189;40;20037;-79
2021/05/09 11:49:23;;;;;;;1.55;0.68;;;20.20;77.80;;;;;;3587327;40;20644;-79
2021/05/09 11:51:51;;;;;;;1.98;0.35;;;20.00;77.50;;;;;;3577502;40;20088;-80
2021/05/09 11:54:19;;;;;;;2.28;0.20;;;19.80;77.20;;;;;;3576720;40;20036;-79
2021/05/09 11:56:51;;;;;;;2.05;0.40;;;19.60;79.80;;;;;;3586853;40;20036;-80
2021/05/09 11:59:39;;;;;;;2.95;0.40;;;19.40;78.40;;;;;;3587196;40;20043;-80
2021/05/09 12:02:19;;;;;;;1.95;0.35;;;19.30;78.40;;;;;;3586911;40;20036;-80
2021/05/09 12:05:02;;;;;;;2.88;1.13;;;19.30;76.80;;;;;;3583820;40;20039;-80
2021/05/09 12:07:55;;;;;;;7.30;1.17;;;19.30;78.70;;;;;;3587053;40;20075;-80
2021/05/09 12:10:30;;;;;;;1.42;0.80;;;19.40;79.00;;;;;;3578271;40;20052;-80
2021/05/09 12:13:05;;;;;;;2.03;0.50;;;19.70;76.80;;;;;;3586683;40;20063;-79
2021/05/09 12:15:44;;;;;;;1.83;0.60;;;20.00;77.80;;;;;;3584817;40;20344;-80
2021/05/09 12:18:11;;;;;;;1.20;0.40;;;20.20;76.30;;;;;;3565947;40;20252;-81
2021/05/09 12:20:42;;;;;;;2.55;0.40;;;20.50;78.00;;;;;;3576163;40;20319;-80
2021/05/09 12:23:15;;;;;;;1.85;0.63;;;20.70;76.70;;;;;;3586882;40;20098;-79
2021/05/09 12:25:44;;;;;;;1.97;1.23;;;20.90;75.80;;;;;;3576362;40;20033;-80
2021/05/09 12:28:20;;;;;;;2.58;0.40;;;21.00;74.50;;;;;;3586328;40;20032;-80
2021/05/09 12:30:48;;;;;;;3.67;0.30;;;21.00;72.20;;;;;;3586494;40;20040;-81
2021/05/09 12:33:31;;;;;;;2.13;0.70;;;21.10;73.40;;;;;;3586264;40;20040;-80
2021/05/09 12:35:58;;;;;;;1.33;0.20;;;21.30;69.20;;;;;;3568999;40;20041;-79
2021/05/09 12:38:31;;;;;;;1.02;0.20;;;21.60;75.10;;;;;;3586113;40;20042;-79
2021/05/09 12:41:04;;;;;;;0.95;0.20;;;22.00;68.70;;;;;;3576845;40;20041;-79
2021/05/09 12:43:53;;;;;;;0.90;0.20;;;22.30;69.40;;;;;;3576992;40;20037;-80
2021/05/09 12:46:50;;;;;;;1.67;0.20;;;22.80;63.90;;;;;;3586226;40;20047;-81
2021/05/09 12:49:18;;;;;;;0.60;0.17;;;23.30;63.60;;;;;;3584384;40;20144;-80
2021/05/09 12:51:47;;;;;;;0.60;0.20;;;23.50;70.10;;;;;;3586231;40;20159;-80